createdAt,value
2024-03-12T00:01:42.494Z,71.96
2024-03-12T00:04:09.967Z,71.89
2024-03-12T00:06:38.043Z,71.91
2024-03-12T00:09:08.026Z,71.91
2024-03-12T00:11:38.401Z,72.09
2024-03-12T00:14:05.534Z,71.91
2024-03-12T00:16:35.010Z,71.76
2024-03-12T00:19:03.648Z,71.60
2024-03-12T00:21:31.949Z,71.44
2024-03-12T00:24:00.310Z,71.39
2024-03-12T00:26:29.669Z,71.30
2024-03-12T00:28:56.863Z,71.60
2024-03-12T00:31:24.070Z,71.57
2024-03-12T00:33:51.219Z,71.68
2024-03-12T00:36:18.472Z,71.54
2024-03-12T00:38:45.415Z,71.69
2024-03-12T00:41:12.370Z,71.70
2024-03-12T00:43:41.701Z,71.53
2024-03-12T00:46:13.582Z,71.27
2024-03-12T00:48:40.610Z,71.35
2024-03-12T00:51:11.171Z,71.25
2024-03-12T00:53:37.914Z,70.91
2024-03-12T00:56:05.030Z,71.06
2024-03-12T00:58:34.651Z,71.13
2024-03-12T01:01:02.114Z,71.23
2024-03-12T01:03:30.733Z,71.19
2024-03-12T01:05:57.813Z,71.26
2024-03-12T01:08:25.192Z,71.12
2024-03-12T01:10:54.106Z,71.11
2024-03-12T01:13:21.823Z,71.36
2024-03-12T01:15:49.627Z,71.36
2024-03-12T01:18:16.774Z,71.28
2024-03-12T01:20:46.605Z,71.31
2024-03-12T01:23:14.978Z,71.08
2024-03-12T01:25:42.845Z,71.11
2024-03-12T01:28:12.081Z,71.08
2024-03-12T01:30:39.346Z,71.13
2024-03-12T01:33:07.524Z,71.01
2024-03-12T01:35:40.966Z,70.94
2024-03-12T01:38:11.914Z,70.77
2024-03-12T01:40:40.480Z,70.67
2024-03-12T01:43:08.597Z,70.41
2024-03-12T01:45:37.452Z,70.80
2024-03-12T01:48:09.655Z,70.81
2024-03-12T01:50:38.480Z,71.01
2024-03-12T01:53:07.650Z,70.67
2024-03-12T01:55:39.625Z,71.03
2024-03-12T01:58:08.029Z,70.95
2024-03-12T02:00:35.417Z,70.68
2024-03-12T02:03:02.540Z,70.61
2024-03-12T02:05:29.623Z,70.57
2024-03-12T02:07:56.843Z,70.59
2024-03-12T02:10:26.490Z,70.73
2024-03-12T02:12:53.721Z,70.84
2024-03-12T02:15:22.405Z,71.29
2024-03-12T02:17:54.288Z,71.09
2024-03-12T02:20:23.680Z,71.38
2024-03-12T02:22:55.806Z,71.21
2024-03-12T02:25:24.095Z,71.38
2024-03-12T02:27:52.287Z,71.08
2024-03-12T02:34:26.093Z,71.46
2024-03-12T02:36:53.439Z,71.51
2024-03-12T02:39:20.395Z,71.56
2024-03-12T02:41:47.315Z,71.75
2024-03-12T02:44:14.182Z,71.64
2024-03-12T02:46:43.003Z,71.35
2024-03-12T02:49:10.833Z,71.39
2024-03-12T02:51:37.976Z,71.47
2024-03-12T02:54:06.432Z,71.38
2024-03-12T02:56:34.610Z,71.31
2024-03-12T02:59:01.471Z,70.88
2024-03-12T03:01:29.818Z,71.19
2024-03-12T03:03:58.902Z,71.12
2024-03-12T03:06:25.927Z,70.96
2024-03-12T03:08:52.738Z,71.10
2024-03-12T03:11:19.703Z,71.00
2024-03-12T03:13:46.613Z,71.02
2024-03-12T03:16:13.469Z,71.24
2024-03-12T03:18:40.506Z,71.39
2024-03-12T03:21:10.376Z,71.19
2024-03-12T03:23:42.106Z,71.21
2024-03-12T03:26:11.697Z,71.16
2024-03-12T03:28:39.284Z,71.14
2024-03-12T03:31:06.348Z,71.58
2024-03-12T03:33:33.328Z,71.48
2024-03-12T03:36:00.275Z,71.49
2024-03-12T03:38:29.234Z,71.45
2024-03-12T03:40:57.840Z,71.59
2024-03-12T03:43:24.705Z,71.30
2024-03-12T03:45:51.641Z,71.28
2024-03-12T03:48:18.514Z,71.12
2024-03-12T03:50:46.938Z,70.97
2024-03-12T03:53:15.192Z,71.08
2024-03-12T03:55:42.394Z,71.01
2024-03-12T03:58:11.537Z,71.25
2024-03-12T04:00:38.619Z,71.02
2024-03-12T04:03:07.712Z,71.04
2024-03-12T04:05:34.885Z,71.14
2024-03-12T04:08:03.785Z,71.05
2024-03-12T04:10:31.908Z,71.33
2024-03-12T04:12:59.837Z,70.97
2024-03-12T04:15:30.329Z,71.07
2024-03-12T04:17:58.030Z,71.22
2024-03-12T04:20:25.168Z,70.98
2024-03-12T04:22:52.004Z,71.46
2024-03-12T04:25:19.252Z,71.42
2024-03-12T04:27:47.200Z,71.71
2024-03-12T04:30:15.174Z,71.68
2024-03-12T04:32:43.924Z,71.44
2024-03-12T04:35:14.375Z,71.25
2024-03-12T04:37:41.704Z,71.97
2024-03-12T04:40:09.809Z,71.75
2024-03-12T04:42:38.691Z,71.84
2024-03-12T04:45:08.625Z,72.03
2024-03-12T04:47:38.639Z,72.13
2024-03-12T04:50:05.867Z,72.43
2024-03-12T04:52:35.129Z,72.15
2024-03-12T04:55:03.062Z,72.07
2024-03-12T04:57:30.067Z,71.99
2024-03-12T04:59:56.890Z,71.84
2024-03-12T05:02:24.087Z,71.91
2024-03-12T05:04:50.965Z,71.46
2024-03-12T05:07:18.056Z,71.22
2024-03-12T05:09:45.045Z,71.60
2024-03-12T05:12:11.980Z,71.48
2024-03-12T05:14:38.850Z,71.65
2024-03-12T05:17:07.249Z,71.33
2024-03-12T05:19:35.200Z,71.80
2024-03-12T05:22:04.203Z,71.72
2024-03-12T05:24:35.418Z,71.79
2024-03-12T05:27:04.910Z,72.12
2024-03-12T05:29:43.629Z,72.13
2024-03-12T05:32:20.057Z,72.30
2024-03-12T05:34:48.892Z,72.07
2024-03-12T05:37:42.088Z,72.02
2024-03-12T05:40:18.484Z,71.91
2024-03-12T05:43:05.309Z,71.69
2024-03-12T05:45:51.051Z,71.77
2024-03-12T05:48:18.763Z,71.90
2024-03-12T05:50:46.526Z,71.93
2024-03-12T05:53:14.932Z,71.99
2024-03-12T05:55:42.899Z,71.68
2024-03-12T05:58:11.385Z,72.24
2024-03-12T06:00:38.258Z,72.25
2024-03-12T06:03:05.084Z,71.81
2024-03-12T06:05:32.378Z,71.38
2024-03-12T06:08:01.265Z,71.83
2024-03-12T06:10:28.256Z,72.08
2024-03-12T06:12:55.183Z,72.23
2024-03-12T06:15:21.998Z,72.35
2024-03-12T06:17:48.788Z,72.27
2024-03-12T06:20:15.658Z,72.57
2024-03-12T06:22:45.792Z,72.60
2024-03-12T06:25:14.131Z,72.39
2024-03-12T06:27:41.857Z,72.31
2024-03-12T06:30:09.599Z,72.64
2024-03-12T06:32:36.611Z,72.21
2024-03-12T06:35:03.655Z,72.25
2024-03-12T06:41:37.600Z,72.22
2024-03-12T06:44:09.194Z,72.15
2024-03-12T06:46:36.012Z,72.67
2024-03-12T06:49:02.974Z,72.46
2024-03-12T06:51:33.415Z,72.35
2024-03-12T06:54:00.631Z,72.61
2024-03-12T07:00:56.916Z,73.07
2024-03-12T07:03:25.473Z,72.83
2024-03-12T07:05:54.041Z,72.77
2024-03-12T07:08:27.254Z,73.24
2024-03-12T07:10:56.404Z,73.38
2024-03-12T07:13:24.999Z,72.96
2024-03-12T07:15:54.542Z,72.59
2024-03-12T07:22:46.411Z,72.76
2024-03-12T07:25:14.662Z,72.64
2024-03-12T07:27:42.039Z,72.53
2024-03-12T07:30:11.737Z,72.44
2024-03-12T07:32:40.479Z,72.03
2024-03-12T07:35:08.352Z,72.11
2024-03-12T07:37:41.377Z,71.60
2024-03-12T07:40:17.525Z,71.62
2024-03-12T07:42:45.915Z,71.59
2024-03-12T07:45:16.285Z,71.42
2024-03-12T07:47:43.964Z,71.38
2024-03-12T07:50:12.789Z,71.89
2024-03-12T07:52:40.485Z,70.90
2024-03-12T07:55:07.743Z,70.08
2024-03-12T07:57:36.688Z,70.38
2024-03-12T08:00:13.496Z,70.79
2024-03-12T08:02:40.852Z,69.72
2024-03-12T08:05:07.800Z,69.41
2024-03-12T08:07:36.179Z,69.63
2024-03-12T08:10:03.192Z,70.20
2024-03-12T08:12:30.053Z,68.58
2024-03-12T08:15:00.055Z,68.57
2024-03-12T08:17:27.864Z,68.40
2024-03-12T08:19:54.741Z,68.30
2024-03-12T08:22:23.638Z,68.37
2024-03-12T08:24:51.645Z,68.16
2024-03-12T08:27:21.596Z,68.17
2024-03-12T08:29:48.574Z,67.71
2024-03-12T08:32:15.385Z,67.73
2024-03-12T08:34:43.443Z,67.88
2024-03-12T08:37:13.456Z,67.92
2024-03-12T08:39:40.886Z,67.63
2024-03-12T08:42:10.983Z,67.79
2024-03-12T08:44:38.789Z,68.26
2024-03-12T08:47:06.090Z,67.67
2024-03-12T08:49:34.744Z,68.08
2024-03-12T08:52:01.844Z,67.82
2024-03-12T08:54:29.137Z,67.87
2024-03-12T08:56:56.307Z,67.67
2024-03-12T08:59:23.703Z,67.35
2024-03-12T09:01:50.703Z,67.58
2024-03-12T09:04:18.488Z,67.51
2024-03-12T09:06:45.558Z,67.25
2024-03-12T09:09:17.386Z,67.17
2024-03-12T09:11:44.459Z,67.26
2024-03-12T09:14:11.920Z,67.89
2024-03-12T09:16:40.738Z,67.56
2024-03-12T09:19:08.122Z,67.70
2024-03-12T09:21:35.584Z,67.41
2024-03-12T09:24:03.021Z,67.60
2024-03-12T09:26:30.770Z,67.49
2024-03-12T09:29:00.878Z,67.45
2024-03-12T09:31:28.850Z,67.31
2024-03-12T09:33:56.735Z,67.13
2024-03-12T09:36:25.905Z,66.93
2024-03-12T09:38:55.103Z,66.93
2024-03-12T09:41:23.638Z,67.32
2024-03-12T09:43:52.589Z,66.89
2024-03-12T09:46:21.381Z,66.58
2024-03-12T09:48:51.336Z,66.69
2024-03-12T09:51:18.575Z,66.75
2024-03-12T09:53:48.042Z,66.09
2024-03-12T09:56:18.281Z,65.78
2024-03-12T09:58:49.285Z,66.01
2024-03-12T10:01:16.506Z,66.26
2024-03-12T10:03:43.564Z,65.65
2024-03-12T10:06:11.260Z,66.19
2024-03-12T10:08:38.144Z,65.83
2024-03-12T10:11:10.230Z,66.00
2024-03-12T10:13:40.343Z,65.95
2024-03-12T10:16:09.024Z,65.65
2024-03-12T10:18:38.443Z,66.30
2024-03-12T10:21:08.167Z,66.19
2024-03-12T10:23:41.509Z,65.59
2024-03-12T10:26:11.222Z,65.44
2024-03-12T10:28:39.772Z,65.41
2024-03-12T10:31:13.432Z,65.87
2024-03-12T10:33:44.248Z,65.42
2024-03-12T10:36:12.698Z,65.34
2024-03-12T10:38:41.628Z,65.00
2024-03-12T10:41:22.312Z,64.75
2024-03-12T10:43:51.861Z,64.78
2024-03-12T10:46:20.924Z,64.64
2024-03-12T10:53:14.299Z,64.31
2024-03-12T10:59:57.004Z,63.44
2024-03-12T11:06:49.236Z,63.45
2024-03-12T11:09:23.262Z,63.68
2024-03-12T11:11:53.735Z,64.27
2024-03-12T11:14:21.853Z,63.64
2024-03-12T11:16:49.522Z,63.00
2024-03-12T11:19:26.309Z,62.60
2024-03-12T11:21:55.286Z,62.18
2024-03-12T11:24:31.083Z,62.59
2024-03-12T11:27:01.885Z,62.58
2024-03-12T11:30:09.996Z,61.78
2024-03-12T11:32:44.006Z,60.63
2024-03-12T11:35:19.838Z,60.52
2024-03-12T11:38:10.351Z,59.87
2024-03-12T11:40:48.570Z,59.07
2024-03-12T11:43:35.772Z,59.46
2024-03-12T11:46:02.765Z,59.24
2024-03-12T11:48:38.092Z,58.32
2024-03-12T11:51:06.053Z,57.73
2024-03-12T11:53:36.831Z,58.11
2024-03-12T11:56:06.363Z,57.84
2024-03-12T11:58:42.287Z,57.62
2024-03-12T12:01:11.758Z,56.78
2024-03-12T12:03:38.878Z,57.04
2024-03-12T12:06:07.703Z,57.21
2024-03-12T12:08:42.775Z,56.46
2024-03-12T12:11:18.093Z,55.61
2024-03-12T12:13:48.540Z,56.31
2024-03-12T12:16:17.716Z,56.07
2024-03-12T12:18:47.251Z,55.80
2024-03-12T12:21:16.785Z,55.43
2024-03-12T12:23:50.565Z,55.32
2024-03-12T12:26:22.515Z,56.17
2024-03-12T12:28:55.762Z,55.44
2024-03-12T12:31:29.302Z,55.67
2024-03-12T12:34:02.825Z,56.20
2024-03-12T12:36:34.289Z,55.51
2024-03-12T12:39:05.468Z,54.57
2024-03-12T12:41:44.526Z,54.72
2024-03-12T12:44:22.400Z,54.64
2024-03-12T12:46:50.232Z,54.37
2024-03-12T12:49:18.472Z,53.80
2024-03-12T12:51:47.963Z,53.35
2024-03-12T12:54:16.897Z,52.93
2024-03-12T12:56:47.434Z,52.67
2024-03-12T12:59:16.570Z,53.39
2024-03-12T13:01:44.109Z,52.60
2024-03-12T13:04:25.075Z,52.29
2024-03-12T13:06:55.445Z,51.80
2024-03-12T13:09:33.921Z,51.56
2024-03-12T13:12:02.210Z,51.38
2024-03-12T13:14:29.838Z,50.74
2024-03-12T13:16:56.826Z,50.58
2024-03-12T13:19:24.209Z,50.43
2024-03-12T13:21:51.732Z,49.94
2024-03-12T13:24:22.367Z,50.68
2024-03-12T13:26:49.991Z,52.16
2024-03-12T13:29:17.095Z,51.04
2024-03-12T13:31:44.552Z,50.69
2024-03-12T13:34:11.623Z,48.62
2024-03-12T13:36:38.581Z,47.85
2024-03-12T13:39:07.544Z,47.43
2024-03-12T13:45:58.917Z,46.73
2024-03-12T13:48:28.585Z,48.10
2024-03-12T13:51:01.016Z,46.88
2024-03-12T13:53:29.145Z,46.31
2024-03-12T13:56:00.239Z,46.53
2024-03-12T13:58:27.488Z,45.09
2024-03-12T14:00:58.174Z,44.29
2024-03-12T14:03:27.172Z,45.32
2024-03-12T14:05:56.335Z,44.65
2024-03-12T14:08:28.786Z,44.49
2024-03-12T14:10:58.086Z,44.14
2024-03-12T14:17:45.791Z,48.72
2024-03-12T14:20:17.205Z,46.69
2024-03-12T14:22:47.440Z,45.42
2024-03-12T14:29:33.945Z,44.86
2024-03-12T14:32:01.598Z,45.55
2024-03-12T14:34:29.882Z,44.71
2024-03-12T14:36:56.910Z,44.14
2024-03-12T14:39:24.426Z,44.32
2024-03-12T14:41:52.295Z,44.44
2024-03-12T14:48:38.729Z,43.96
2024-03-12T14:51:07.334Z,44.49
2024-03-12T14:57:54.738Z,44.20
2024-03-12T15:00:22.285Z,43.91
2024-03-12T15:02:49.149Z,43.80
2024-03-12T15:05:16.202Z,43.71
2024-03-12T15:07:47.348Z,43.24
2024-03-12T15:14:40.829Z,42.63
2024-03-12T15:17:12.550Z,42.81
2024-03-12T15:19:39.870Z,42.38
2024-03-12T15:22:07.212Z,42.78
2024-03-12T15:24:36.146Z,42.53
2024-03-12T15:27:05.097Z,43.60
2024-03-12T15:33:53.345Z,41.45
2024-03-12T15:36:22.135Z,41.44
2024-03-12T15:38:49.682Z,41.50
2024-03-12T15:41:17.224Z,41.63
2024-03-12T15:43:45.867Z,42.48
2024-03-12T15:46:20.406Z,43.57
2024-03-12T15:48:47.460Z,44.12
2024-03-12T15:51:14.931Z,44.78
2024-03-12T15:53:43.743Z,44.85
2024-03-12T15:56:14.284Z,46.72
2024-03-12T15:58:42.144Z,46.26
2024-03-12T16:01:09.116Z,44.36
2024-03-12T16:03:39.982Z,46.11
2024-03-12T16:06:08.086Z,45.82
2024-03-12T16:08:34.917Z,45.35
2024-03-12T16:11:04.128Z,45.63
2024-03-12T16:13:31.153Z,43.97
2024-03-12T16:15:58.089Z,44.53
2024-03-12T16:18:26.169Z,44.91
2024-03-12T16:20:53.344Z,46.83
2024-03-12T16:23:20.246Z,47.29
2024-03-12T16:25:47.357Z,46.50
2024-03-12T16:28:14.174Z,47.65
2024-03-12T16:30:43.441Z,46.88
2024-03-12T16:33:10.262Z,47.38
2024-03-12T16:35:37.156Z,47.78
2024-03-12T16:38:04.430Z,49.43
2024-03-12T16:40:31.800Z,49.30
2024-03-12T16:42:58.861Z,48.99
2024-03-12T16:45:25.788Z,49.03
2024-03-12T16:47:52.784Z,49.20
2024-03-12T16:50:19.909Z,49.42
2024-03-12T16:52:47.712Z,49.70
2024-03-12T16:55:15.634Z,49.09
2024-03-12T16:57:43.012Z,50.22
2024-03-12T17:00:15.571Z,52.53
2024-03-12T17:02:43.692Z,52.84
2024-03-12T17:09:31.142Z,53.55
2024-03-12T17:11:58.314Z,51.50
2024-03-12T17:14:30.741Z,50.98
2024-03-12T17:17:07.689Z,52.22
2024-03-12T17:19:36.924Z,51.31
2024-03-12T17:22:07.346Z,51.09
2024-03-12T17:24:35.825Z,50.67
2024-03-12T17:27:10.417Z,50.92
2024-03-12T17:29:38.408Z,51.21
2024-03-12T17:32:11.904Z,51.24
2024-03-12T17:34:40.156Z,51.67
2024-03-12T17:37:17.741Z,52.08
2024-03-12T17:39:47.973Z,52.01
2024-03-12T17:42:21.772Z,52.71
2024-03-12T17:44:49.560Z,52.72
2024-03-12T17:47:22.296Z,52.86
2024-03-12T17:49:51.238Z,52.66
2024-03-12T17:52:18.288Z,52.77
2024-03-12T17:54:47.226Z,52.97
2024-03-12T17:57:17.870Z,52.78
2024-03-12T17:59:45.973Z,53.04
2024-03-12T18:02:15.607Z,53.11
2024-03-12T18:09:01.434Z,53.66
2024-03-12T18:15:50.672Z,53.66
2024-03-12T18:18:17.613Z,53.70
2024-03-12T18:25:05.025Z,53.93
2024-03-12T18:31:39.181Z,54.25
2024-03-12T18:34:11.014Z,54.55
2024-03-12T18:36:38.013Z,54.52
2024-03-12T18:39:05.265Z,54.34
2024-03-12T18:41:32.091Z,54.30
2024-03-12T18:48:20.652Z,54.61
2024-03-12T18:50:50.413Z,54.51
2024-03-12T18:57:42.545Z,54.81
2024-03-12T19:00:15.710Z,54.82
2024-03-12T19:07:04.616Z,54.50
2024-03-12T19:09:32.760Z,54.95
2024-03-12T19:16:23.603Z,54.54
2024-03-12T19:18:51.241Z,54.49
2024-03-12T19:21:20.972Z,54.35
2024-03-12T19:23:52.782Z,54.05
2024-03-12T19:26:20.320Z,53.97
2024-03-12T19:28:47.387Z,53.35
2024-03-12T19:31:15.799Z,53.13
2024-03-12T19:33:47.681Z,53.02
2024-03-12T19:36:22.026Z,53.12
2024-03-12T19:38:49.912Z,53.67
2024-03-12T19:41:18.886Z,53.82
2024-03-12T19:43:47.325Z,54.25
2024-03-12T19:46:16.451Z,53.46
2024-03-12T19:48:44.500Z,53.26
2024-03-12T19:51:14.317Z,53.08
2024-03-12T19:53:41.171Z,52.85
2024-03-12T19:56:13.397Z,52.62
2024-03-12T19:58:40.470Z,52.64
2024-03-12T20:01:07.849Z,52.93
2024-03-12T20:03:35.039Z,52.60
2024-03-12T20:06:02.035Z,52.57
2024-03-12T20:08:30.238Z,52.56
2024-03-12T20:10:57.375Z,52.23
2024-03-12T20:13:24.924Z,52.33
2024-03-12T20:15:53.407Z,52.21
2024-03-12T20:18:20.622Z,52.43
2024-03-12T20:20:47.664Z,52.55
2024-03-12T20:23:14.576Z,52.41
2024-03-12T20:25:41.710Z,52.37
2024-03-12T20:28:13.417Z,53.02
2024-03-12T20:30:41.080Z,53.20
2024-03-12T20:33:13.200Z,53.67
2024-03-12T20:35:40.322Z,53.17
2024-03-12T20:38:09.816Z,53.40
2024-03-12T20:40:37.046Z,53.01
2024-03-12T20:43:07.160Z,53.39
2024-03-12T20:45:35.728Z,53.54
2024-03-12T20:48:04.333Z,53.67
2024-03-12T20:54:55.561Z,53.41
2024-03-12T20:57:22.398Z,53.81
2024-03-12T20:59:49.314Z,53.66
2024-03-12T21:02:16.219Z,53.57
2024-03-12T21:04:44.457Z,53.84
2024-03-12T21:07:12.268Z,53.50
2024-03-12T21:09:40.157Z,53.63
2024-03-12T21:12:07.060Z,53.95
2024-03-12T21:14:34.026Z,53.54
2024-03-12T21:17:12.084Z,53.41
2024-03-12T21:19:38.849Z,52.92
2024-03-12T21:22:09.569Z,52.77
2024-03-12T21:24:37.723Z,53.06
2024-03-12T21:27:04.769Z,53.57
2024-03-12T21:29:34.261Z,52.95
2024-03-12T21:32:01.157Z,53.12
2024-03-12T21:34:28.107Z,52.84
2024-03-12T21:36:54.887Z,52.98
2024-03-12T21:39:23.532Z,53.41
2024-03-12T21:41:50.418Z,53.10
2024-03-12T21:44:20.166Z,52.99
2024-03-12T21:46:50.747Z,53.08
2024-03-12T21:49:17.682Z,53.12
2024-03-12T21:51:44.608Z,52.56
2024-03-12T21:58:20.409Z,55.18
2024-03-12T22:00:47.972Z,55.46
2024-03-12T22:03:16.202Z,55.81
2024-03-12T22:05:43.020Z,56.19
2024-03-12T22:08:09.845Z,56.37
2024-03-12T22:10:37.054Z,56.85
2024-03-12T22:13:04.645Z,56.88
2024-03-12T22:15:31.584Z,57.18
2024-03-12T22:17:58.448Z,57.36
2024-03-12T22:20:25.677Z,57.12
2024-03-12T22:22:55.272Z,56.90
2024-03-12T22:25:23.822Z,57.22
2024-03-12T22:27:51.014Z,57.70
2024-03-12T22:30:18.791Z,57.59
2024-03-12T22:32:46.678Z,57.39
2024-03-12T22:35:13.730Z,57.21
2024-03-12T22:37:43.499Z,57.10
2024-03-12T22:40:13.726Z,57.43
2024-03-12T22:42:41.408Z,57.36
2024-03-12T22:45:10.158Z,56.97
2024-03-12T22:47:37.222Z,56.62
2024-03-12T22:50:04.377Z,56.69
2024-03-12T22:52:32.032Z,56.42
2024-03-12T22:54:58.952Z,56.34
2024-03-12T22:57:27.910Z,56.19
2024-03-12T22:59:56.041Z,56.71
2024-03-12T23:02:23.526Z,56.70
2024-03-12T23:04:52.237Z,57.00
2024-03-12T23:07:20.855Z,56.67
2024-03-12T23:09:50.027Z,56.46
2024-03-12T23:12:18.473Z,56.45
2024-03-12T23:14:45.291Z,56.89
2024-03-12T23:17:12.093Z,56.98
2024-03-12T23:19:42.136Z,56.61
2024-03-12T23:22:10.783Z,56.81
2024-03-12T23:24:39.383Z,57.66
2024-03-12T23:27:06.736Z,58.33
2024-03-12T23:29:34.784Z,58.68
2024-03-12T23:32:01.629Z,58.77
2024-03-12T23:34:28.585Z,58.86
2024-03-12T23:36:55.655Z,58.83
2024-03-12T23:39:25.187Z,59.40
2024-03-12T23:41:53.779Z,58.65
2024-03-12T23:44:20.833Z,59.24
2024-03-12T23:46:47.716Z,59.62
2024-03-12T23:49:14.621Z,59.98
2024-03-12T23:51:41.632Z,60.12
2024-03-12T23:54:08.512Z,59.95
2024-03-12T23:56:35.614Z,60.09
2024-03-12T23:59:02.457Z,59.85
